createdAt,value
2022-10-22T00:00:55.857Z,96550.63
2022-10-22T00:03:22.593Z,96540.84
2022-10-22T00:05:49.166Z,96552.44
2022-10-22T00:08:15.628Z,96550.63
2022-10-22T00:10:42.482Z,96544.28
2022-10-22T00:13:09.017Z,96555.09
2022-10-22T00:15:35.463Z,96549.31
2022-10-22T00:18:01.975Z,96540.81
2022-10-22T00:24:03.390Z,96528.19
2022-10-22T00:26:29.928Z,96533.19
2022-10-22T00:28:56.333Z,96537.41
2022-10-22T00:31:22.885Z,96536.31
2022-10-22T00:33:49.335Z,96544.00
2022-10-22T00:36:16.664Z,96530.53
2022-10-22T00:38:43.396Z,96532.38
2022-10-22T00:41:09.939Z,96545.81
2022-10-22T00:43:53.101Z,96557.97
2022-10-22T00:46:19.613Z,96559.00
2022-10-22T00:48:46.065Z,96566.38
2022-10-22T00:51:13.816Z,96568.22
2022-10-22T00:53:45.544Z,96549.22
2022-10-22T00:56:12.399Z,96560.56
2022-10-22T00:58:45.274Z,96570.63
2022-10-22T01:01:16.760Z,96562.66
2022-10-22T01:03:43.572Z,96548.16
2022-10-22T01:06:14.965Z,96556.91
2022-10-22T01:09:03.307Z,96558.22
2022-10-22T01:11:34.928Z,96551.13
2022-10-22T01:14:01.396Z,96551.13
2022-10-22T01:16:43.821Z,96557.78
2022-10-22T01:19:19.101Z,96559.09
2022-10-22T01:21:51.940Z,96537.44
2022-10-22T01:24:32.245Z,96520.81
2022-10-22T01:27:20.110Z,96512.91
2022-10-22T01:29:59.999Z,96508.97
2022-10-22T01:32:29.381Z,96497.91
2022-10-22T01:35:01.617Z,96493.75
2022-10-22T01:37:34.905Z,96498.75
2022-10-22T01:40:02.328Z,96496.09
2022-10-22T01:42:29.076Z,96487.66
2022-10-22T01:44:55.643Z,96489.53
2022-10-22T01:47:43.109Z,96492.16
2022-10-22T01:50:30.773Z,96488.78
2022-10-22T01:53:03.387Z,96495.06
2022-10-22T01:55:54.989Z,96510.06
2022-10-22T01:58:58.548Z,96518.47
2022-10-22T02:01:38.703Z,96537.72
2022-10-22T02:04:40.107Z,96538.44
2022-10-22T02:07:08.900Z,96546.13
2022-10-22T02:09:36.518Z,96545.84
2022-10-22T02:12:06.619Z,96549.75
2022-10-22T02:14:36.362Z,96550.53
2022-10-22T02:17:04.070Z,96548.72
2022-10-22T02:19:52.990Z,96551.63
2022-10-22T02:22:20.086Z,96556.38
2022-10-22T02:24:48.349Z,96557.19
2022-10-22T02:27:29.627Z,96544.53
2022-10-22T02:30:00.183Z,96548.25
2022-10-22T02:32:34.327Z,96546.94
2022-10-22T02:35:03.133Z,96548.81
2022-10-22T02:37:30.287Z,96540.59
2022-10-22T02:39:56.870Z,96531.13
2022-10-22T02:42:25.276Z,96543.31
2022-10-22T02:44:52.082Z,96547.50
2022-10-22T02:47:18.657Z,96551.50
2022-10-22T02:49:45.059Z,96550.72
2022-10-22T02:52:11.613Z,96546.78
2022-10-22T02:54:38.025Z,96548.88
2022-10-22T02:57:04.524Z,96534.13
2022-10-22T02:59:30.941Z,96540.22
2022-10-22T03:01:57.444Z,96526.75
2022-10-22T03:04:23.876Z,96528.34
2022-10-22T03:06:50.526Z,96525.72
2022-10-22T03:09:20.181Z,96517.56
2022-10-22T03:11:49.304Z,96519.91
2022-10-22T03:14:15.805Z,96533.09
2022-10-22T03:16:42.351Z,96539.69
2022-10-22T03:19:08.858Z,96542.03
2022-10-22T03:21:45.826Z,96548.09
2022-10-22T03:24:17.657Z,96551.97
2022-10-22T03:26:48.584Z,96540.66
2022-10-22T03:29:15.943Z,96543.34
2022-10-22T03:31:42.865Z,96539.38
2022-10-22T03:34:11.855Z,96536.94
2022-10-22T03:36:38.856Z,96543.25
2022-10-22T03:39:06.241Z,96561.19
2022-10-22T03:41:33.698Z,96568.00
2022-10-22T03:44:01.977Z,96576.94
2022-10-22T03:46:28.559Z,96588.03
2022-10-22T03:48:54.944Z,96599.88
2022-10-22T03:51:21.505Z,96595.91
2022-10-22T03:53:47.963Z,96606.44
2022-10-22T03:56:14.494Z,96597.75
2022-10-22T03:58:41.463Z,96591.19
2022-10-22T04:01:10.363Z,96607.50
2022-10-22T04:03:36.972Z,96617.47
2022-10-22T04:06:04.882Z,96625.13
2022-10-22T04:08:31.821Z,96608.47
2022-10-22T04:10:58.747Z,96613.78
2022-10-22T04:13:25.592Z,96591.75
2022-10-22T04:15:52.778Z,96609.22
2022-10-22T04:18:20.178Z,96623.78
2022-10-22T04:20:47.014Z,96602.94
2022-10-22T04:23:13.807Z,96620.91
2022-10-22T04:25:40.706Z,96608.47
2022-10-22T04:28:08.275Z,96609.78
2022-10-22T04:30:36.588Z,96627.47
2022-10-22T04:33:03.607Z,96625.59
2022-10-22T04:35:30.148Z,96632.97
2022-10-22T04:37:56.651Z,96629.22
2022-10-22T04:40:23.118Z,96647.09
2022-10-22T04:42:49.652Z,96636.28
2022-10-22T04:45:16.115Z,96642.31
2022-10-22T04:47:42.766Z,96624.34
2022-10-22T04:50:09.642Z,96642.31
2022-10-22T04:52:36.163Z,96646.06
2022-10-22T04:55:02.617Z,96646.03
2022-10-22T04:57:32.158Z,96637.16
2022-10-22T04:59:58.679Z,96637.53
2022-10-22T05:02:25.245Z,96647.78
2022-10-22T05:04:51.757Z,96654.06
2022-10-22T05:07:18.517Z,96653.03
2022-10-22T05:09:44.999Z,96647.69
2022-10-22T05:12:11.526Z,96643.44
2022-10-22T05:14:42.569Z,96644.78
2022-10-22T05:17:11.349Z,96651.34
2022-10-22T05:19:38.274Z,96655.50
2022-10-22T05:22:05.151Z,96659.72
2022-10-22T05:24:33.525Z,96671.53
2022-10-22T05:27:00.642Z,96677.03
2022-10-22T05:29:27.785Z,96680.44
2022-10-22T05:31:54.334Z,96676.69
2022-10-22T05:34:20.791Z,96668.25
2022-10-22T05:36:47.336Z,96663.00
2022-10-22T05:39:13.737Z,96671.88
2022-10-22T05:41:40.464Z,96672.91
2022-10-22T05:44:07.097Z,96677.88
2022-10-22T05:46:36.005Z,96690.72
2022-10-22T05:49:04.912Z,96684.13
2022-10-22T05:51:33.822Z,96693.06
2022-10-22T05:54:06.160Z,96670.63
2022-10-22T05:56:33.587Z,96670.97
2022-10-22T06:01:35.337Z,96678.38
2022-10-22T06:04:04.700Z,96677.25
2022-10-22T06:06:40.476Z,96686.81
2022-10-22T06:09:14.684Z,96686.50
2022-10-22T06:11:41.234Z,96688.38
2022-10-22T06:14:07.687Z,96690.41
2022-10-22T06:16:34.202Z,96702.06
2022-10-22T06:19:02.176Z,96692.06
2022-10-22T06:21:29.808Z,96703.41
2022-10-22T06:23:57.671Z,96707.53
2022-10-22T06:26:24.466Z,96696.47
2022-10-22T06:28:51.015Z,96701.00
2022-10-22T06:31:17.445Z,96709.16
2022-10-22T06:33:44.086Z,96709.16
2022-10-22T06:36:13.475Z,96708.56
2022-10-22T06:38:41.009Z,96714.94
2022-10-22T06:41:13.737Z,96720.53
2022-10-22T06:43:41.395Z,96731.09
2022-10-22T06:46:14.821Z,96735.88
2022-10-22T06:48:49.295Z,96735.13
2022-10-22T06:51:15.926Z,96741.81
2022-10-22T06:53:42.413Z,96751.59
2022-10-22T06:56:13.119Z,96769.03
2022-10-22T06:58:40.202Z,96766.66
2022-10-22T07:01:12.418Z,96772.56
2022-10-22T07:03:40.441Z,96775.50
2022-10-22T07:06:12.558Z,96778.41
2022-10-22T07:08:39.964Z,96778.66
2022-10-22T07:11:15.907Z,96782.16
2022-10-22T07:13:42.958Z,96787.41
2022-10-22T07:16:10.997Z,96791.88
2022-10-22T07:18:39.345Z,96797.16
2022-10-22T07:21:07.224Z,96796.84
2022-10-22T07:23:33.854Z,96809.28
2022-10-22T07:26:02.411Z,96818.75
2022-10-22T07:28:30.200Z,96821.34
2022-10-22T07:30:56.723Z,96830.59
2022-10-22T07:33:23.157Z,96837.16
2022-10-22T07:35:49.676Z,96841.66
2022-10-22T07:38:16.097Z,96828.88
2022-10-22T07:40:42.615Z,96822.81
2022-10-22T07:43:09.094Z,96836.88
2022-10-22T07:45:35.597Z,96842.88
2022-10-22T07:48:02.331Z,96846.44
2022-10-22T07:50:28.795Z,96854.16
2022-10-22T07:52:57.453Z,96845.78
2022-10-22T07:55:24.949Z,96848.06
2022-10-22T07:57:51.406Z,96859.22
2022-10-22T08:00:20.497Z,96849.19
2022-10-22T08:02:49.663Z,96838.19
2022-10-22T08:05:16.518Z,96853.19
2022-10-22T08:07:43.194Z,96855.09
2022-10-22T08:10:10.791Z,96860.28
2022-10-22T08:12:38.453Z,96869.25
2022-10-22T08:15:05.968Z,96874.34
2022-10-22T08:17:32.616Z,96866.44
2022-10-22T08:19:59.150Z,96873.59
2022-10-22T08:22:25.558Z,96882.69
2022-10-22T08:24:53.466Z,96876.75
2022-10-22T08:27:20.053Z,96863.34
2022-10-22T08:29:46.585Z,96866.72
2022-10-22T08:32:13.581Z,96873.84
2022-10-22T08:34:40.038Z,96876.06
2022-10-22T08:37:08.502Z,96878.47
2022-10-22T08:39:35.571Z,96874.28
2022-10-22T08:42:17.004Z,96882.75
2022-10-22T08:45:19.943Z,96884.31
2022-10-22T08:48:05.202Z,96884.31
2022-10-22T08:50:45.631Z,96887.44
2022-10-22T08:53:41.549Z,96893.38
2022-10-22T08:56:08.089Z,96872.75
2022-10-22T08:58:47.713Z,96885.50
2022-10-22T09:01:23.247Z,96884.28
2022-10-22T09:03:58.681Z,96889.31
2022-10-22T09:06:28.292Z,96896.22
2022-10-22T09:08:58.238Z,96899.94
2022-10-22T09:11:27.362Z,96893.50
2022-10-22T09:13:55.503Z,96907.84
2022-10-22T09:16:31.057Z,96895.13
2022-10-22T09:19:16.047Z,96912.63
2022-10-22T09:22:12.850Z,96918.41
2022-10-22T09:24:46.595Z,96914.44
2022-10-22T09:27:23.602Z,96924.19
2022-10-22T09:29:50.176Z,96918.63
2022-10-22T09:32:17.166Z,96932.00
2022-10-22T09:34:49.100Z,96930.38
2022-10-22T09:37:24.694Z,96929.84
2022-10-22T09:39:52.454Z,96929.91
2022-10-22T09:42:20.485Z,96928.34
2022-10-22T09:44:59.743Z,96931.81
2022-10-22T09:48:00.522Z,96928.16
2022-10-22T09:50:29.366Z,96935.69
2022-10-22T09:53:11.905Z,96929.91
2022-10-22T09:55:40.400Z,96945.50
2022-10-22T09:58:11.469Z,96936.03
2022-10-22T10:00:44.992Z,96943.94
2022-10-22T10:03:18.501Z,96945.78
2022-10-22T10:05:48.580Z,96938.94
2022-10-22T10:08:17.491Z,96937.09
2022-10-22T10:10:59.777Z,96941.13
2022-10-22T10:13:38.638Z,96942.41
2022-10-22T10:32:30.170Z,96933.44
2022-10-22T10:35:15.174Z,96930.00
2022-10-22T10:38:18.965Z,96930.19
2022-10-22T10:40:55.642Z,96925.97
2022-10-22T10:43:45.046Z,96924.84
2022-10-22T10:49:09.562Z,96929.63
2022-10-22T10:52:17.390Z,96933.25
2022-10-22T10:55:02.759Z,96917.69
2022-10-22T10:57:46.748Z,96924.84
2022-10-22T11:00:20.034Z,96928.09
2022-10-22T11:03:07.788Z,96924.91
2022-10-22T11:05:39.518Z,96927.00
2022-10-22T11:08:43.394Z,96923.72
2022-10-22T11:11:26.621Z,96934.56
2022-10-22T11:13:57.825Z,96926.13
2022-10-22T11:16:37.011Z,96936.66
2022-10-22T11:19:53.731Z,96935.88
2022-10-22T11:22:28.782Z,96929.34
2022-10-22T11:28:43.912Z,96941.09
2022-10-22T11:31:14.716Z,96931.88
2022-10-22T11:34:33.338Z,96939.81
2022-10-22T11:37:06.332Z,96933.75
2022-10-22T11:39:48.999Z,96932.91
2022-10-22T11:42:31.838Z,96936.28
2022-10-22T11:45:06.291Z,96934.75
2022-10-22T11:48:07.497Z,96923.53
2022-10-22T11:50:56.678Z,96932.50
2022-10-22T11:53:26.137Z,96932.69
2022-10-22T11:55:55.499Z,96929.97
2022-10-22T11:58:28.290Z,96935.53
2022-10-22T12:01:17.600Z,96942.31
2022-10-22T12:04:21.900Z,96938.88
2022-10-22T12:07:02.005Z,96912.25
2022-10-22T12:09:32.754Z,96935.34
2022-10-22T12:12:15.397Z,96925.91
2022-10-22T12:14:59.361Z,96902.97
2022-10-22T12:17:28.577Z,96915.44
2022-10-22T12:20:25.254Z,96917.41
2022-10-22T12:22:53.050Z,96907.13
2022-10-22T12:25:23.749Z,96910.81
2022-10-22T12:27:53.450Z,96910.94
2022-10-22T12:30:23.652Z,96918.22
2022-10-22T12:33:00.453Z,96923.72
2022-10-22T12:35:30.210Z,96919.78
2022-10-22T12:38:00.397Z,96917.41
2022-10-22T12:40:33.721Z,96919.50
2022-10-22T12:43:12.618Z,96900.56
2022-10-22T12:45:40.945Z,96902.44
2022-10-22T12:48:34.377Z,96908.69
2022-10-22T12:51:03.983Z,96902.63
2022-10-22T12:53:37.716Z,96896.72
2022-10-22T12:56:06.827Z,96904.13
2022-10-22T12:58:41.053Z,96890.75
2022-10-22T13:01:12.187Z,96903.53
2022-10-22T13:04:16.916Z,96903.97
2022-10-22T13:06:49.636Z,96904.69
2022-10-22T13:09:25.159Z,96902.50
2022-10-22T13:12:04.658Z,96908.19
2022-10-22T13:14:32.407Z,96901.81
2022-10-22T13:17:11.157Z,96903.47
2022-10-22T13:19:54.716Z,96890.13
2022-10-22T13:22:24.244Z,96895.44
2022-10-22T13:24:51.424Z,96892.72
2022-10-22T13:27:18.252Z,96890.50
2022-10-22T13:29:45.243Z,96892.72
2022-10-22T13:32:41.738Z,96888.72
2022-10-22T13:35:15.927Z,96904.72
2022-10-22T13:37:42.678Z,96895.84
2022-10-22T13:40:14.044Z,96899.69
2022-10-22T13:42:40.883Z,96909.78
2022-10-22T13:45:07.898Z,96903.13
2022-10-22T13:47:34.644Z,96896.09
2022-10-22T13:50:12.650Z,96889.19
2022-10-22T13:52:43.416Z,96890.81
2022-10-22T13:55:19.823Z,96908.59
2022-10-22T13:57:47.251Z,96885.72
2022-10-22T14:00:23.796Z,96892.03
2022-10-22T14:02:54.011Z,96884.31
2022-10-22T14:05:21.291Z,96906.03
2022-10-22T14:07:48.714Z,96895.69
2022-10-22T14:10:20.694Z,96895.13
2022-10-22T14:12:52.396Z,96897.53
2022-10-22T14:15:24.066Z,96892.25
2022-10-22T14:17:56.231Z,96897.31
2022-10-22T14:20:26.842Z,96904.00
2022-10-22T14:22:53.639Z,96884.47
2022-10-22T14:25:22.819Z,96900.09
2022-10-22T14:27:49.912Z,96900.44
2022-10-22T14:30:19.334Z,96894.63
2022-10-22T14:32:46.376Z,96901.81
2022-10-22T14:35:15.277Z,96906.34
2022-10-22T14:37:42.156Z,96897.88
2022-10-22T14:40:12.449Z,96899.50
2022-10-22T14:42:42.356Z,96900.88
2022-10-22T14:45:21.813Z,96896.09
2022-10-22T14:47:49.983Z,96910.41
2022-10-22T14:50:17.960Z,96913.84
2022-10-22T14:52:44.796Z,96912.25
2022-10-22T14:55:12.966Z,96907.22
2022-10-22T14:57:40.382Z,96912.25
2022-10-22T15:00:10.111Z,96910.94
2022-10-22T15:02:36.890Z,96918.09
2022-10-22T15:05:04.045Z,96917.03
2022-10-22T15:07:30.611Z,96908.56
2022-10-22T15:09:57.029Z,96924.19
2022-10-22T15:12:23.531Z,96925.47
2022-10-22T15:14:50.173Z,96915.41
2022-10-22T15:17:17.944Z,96921.75
2022-10-22T15:19:44.810Z,96927.56
2022-10-22T15:22:12.627Z,96926.47
2022-10-22T15:24:39.887Z,96931.53
2022-10-22T15:27:06.771Z,96935.50
2022-10-22T15:29:33.466Z,96943.38
2022-10-22T15:32:03.138Z,96935.69
2022-10-22T15:34:32.545Z,96941.44
2022-10-22T15:37:01.047Z,96938.28
2022-10-22T15:39:28.074Z,96934.56
2022-10-22T15:41:54.996Z,96932.97
2022-10-22T15:44:23.698Z,96931.34
2022-10-22T15:49:27.655Z,96935.53
2022-10-22T15:51:54.814Z,96929.91
2022-10-22T15:54:24.627Z,96937.28
2022-10-22T15:56:51.321Z,96942.78
2022-10-22T15:59:18.395Z,96949.59
2022-10-22T16:01:45.139Z,96952.47
2022-10-22T16:04:11.955Z,96955.34
2022-10-22T16:06:41.840Z,96959.81
2022-10-22T16:09:10.911Z,96964.75
2022-10-22T16:11:38.644Z,96961.28
2022-10-22T16:14:05.864Z,96965.75
2022-10-22T16:16:34.628Z,96962.75
2022-10-22T16:19:02.646Z,96939.88
2022-10-22T16:21:29.250Z,96955.72
2022-10-22T16:23:55.673Z,96965.41
2022-10-22T16:26:22.205Z,96971.16
2022-10-22T16:28:48.619Z,96980.59
2022-10-22T16:31:17.906Z,96978.66
2022-10-22T16:33:47.905Z,96983.81
2022-10-22T16:36:18.874Z,96974.22
2022-10-22T16:38:46.798Z,96993.53
2022-10-22T16:41:16.270Z,96982.03
2022-10-22T16:43:44.571Z,96999.19
2022-10-22T16:46:11.842Z,97002.31
2022-10-22T16:48:40.600Z,96995.00
2022-10-22T16:51:09.231Z,97014.09
2022-10-22T16:53:36.317Z,97019.03
2022-10-22T16:56:03.385Z,97016.88
2022-10-22T16:58:30.316Z,97017.31
2022-10-22T17:00:56.869Z,97011.19
2022-10-22T17:03:25.973Z,97015.38
2022-10-22T17:05:54.251Z,97007.09
2022-10-22T17:08:20.661Z,97026.44
2022-10-22T17:10:47.344Z,97024.84
2022-10-22T17:13:13.827Z,97007.72
2022-10-22T17:15:41.053Z,97030.63
2022-10-22T17:18:07.575Z,97029.22
2022-10-22T17:20:34.091Z,97032.31
2022-10-22T17:23:00.597Z,97036.47
2022-10-22T17:25:42.984Z,97040.31
2022-10-22T17:28:13.153Z,97037.31
2022-10-22T17:30:41.025Z,97023.47
2022-10-22T17:33:08.285Z,97030.88
2022-10-22T17:35:39.069Z,97038.13
2022-10-22T17:38:06.476Z,97040.69
2022-10-22T17:40:35.232Z,97041.72
2022-10-22T17:43:02.068Z,97036.16
2022-10-22T17:45:28.719Z,97041.97
2022-10-22T17:47:57.190Z,97049.31
2022-10-22T17:50:23.710Z,97056.88
2022-10-22T17:52:50.606Z,97055.75
2022-10-22T17:55:17.194Z,97060.44
2022-10-22T17:57:43.725Z,97056.47
2022-10-22T18:00:10.520Z,97061.72
2022-10-22T18:02:37.637Z,97064.50
2022-10-22T18:05:04.374Z,97049.00
2022-10-22T18:07:31.129Z,97069.22
2022-10-22T18:09:57.667Z,97074.47
2022-10-22T18:12:24.082Z,97072.84
2022-10-22T18:14:50.605Z,97070.41
2022-10-22T18:17:17.036Z,97078.28
2022-10-22T18:19:43.547Z,97066.78
2022-10-22T18:22:10.049Z,97079.69
2022-10-22T18:24:36.671Z,97080.78
2022-10-22T18:27:03.984Z,97079.09
2022-10-22T18:29:30.622Z,97076.94
2022-10-22T18:31:57.169Z,97082.97
2022-10-22T18:34:24.087Z,97080.53
2022-10-22T18:36:50.755Z,97071.19
2022-10-22T18:39:17.439Z,97084.31
2022-10-22T18:41:44.127Z,97062.38
2022-10-22T18:44:12.969Z,97073.16
2022-10-22T18:46:40.176Z,97069.81
2022-10-22T18:49:07.308Z,97075.31
2022-10-22T18:51:34.838Z,97079.56
2022-10-22T18:54:21.644Z,97085.47
2022-10-22T18:56:49.282Z,97086.50
2022-10-22T18:59:17.873Z,97086.50
2022-10-22T19:01:44.614Z,97089.38
2022-10-22T19:04:12.377Z,97077.00
2022-10-22T19:06:42.979Z,97085.72
2022-10-22T19:09:12.208Z,97073.03
2022-10-22T19:11:38.868Z,97082.34
2022-10-22T19:14:05.360Z,97080.75
2022-10-22T19:16:32.002Z,97065.06
2022-10-22T19:19:05.483Z,97071.56
2022-10-22T19:21:32.932Z,97085.03
2022-10-22T19:24:01.294Z,97083.69
2022-10-22T19:26:30.175Z,97085.19
2022-10-22T19:28:57.768Z,97089.41
2022-10-22T19:31:26.655Z,97089.19
2022-10-22T19:33:56.509Z,97093.97
2022-10-22T19:36:25.228Z,97087.66
2022-10-22T19:38:51.990Z,97087.25
2022-10-22T19:41:21.176Z,97072.66
2022-10-22T19:43:50.991Z,97087.06
2022-10-22T19:46:18.352Z,97082.75
2022-10-22T19:51:19.778Z,97085.88
2022-10-22T19:53:47.091Z,97083.69
2022-10-22T19:56:20.460Z,97077.75
2022-10-22T19:58:47.590Z,97077.75
2022-10-22T20:01:15.880Z,97076.25
2022-10-22T20:03:43.026Z,97074.19
2022-10-22T20:06:11.493Z,97075.78
2022-10-22T20:08:38.910Z,97078.50
2022-10-22T20:11:17.172Z,97080.56
2022-10-22T20:13:46.618Z,97068.25
2022-10-22T20:16:18.000Z,97087.34
2022-10-22T20:18:45.108Z,97091.09
2022-10-22T20:21:16.307Z,97088.72
2022-10-22T20:23:43.221Z,97089.97
2022-10-22T20:26:09.872Z,97072.16
2022-10-22T20:28:37.586Z,97101.06
2022-10-22T20:31:12.856Z,97104.13
2022-10-22T20:33:39.370Z,97099.91
2022-10-22T20:36:07.214Z,97108.84
2022-10-22T20:38:33.919Z,97110.88
2022-10-22T20:41:21.048Z,97112.50
2022-10-22T20:43:48.855Z,97107.94
2022-10-22T20:46:27.941Z,97104.06
2022-10-22T20:49:00.170Z,97097.19
2022-10-22T20:51:28.219Z,97094.47
2022-10-22T20:53:54.737Z,97100.28
2022-10-22T20:56:21.389Z,97111.16
2022-10-22T20:58:49.070Z,97094.47
2022-10-22T21:01:24.126Z,97109.22
2022-10-22T21:03:52.711Z,97105.19
2022-10-22T21:06:22.906Z,97085.31
2022-10-22T21:08:50.409Z,97105.53
2022-10-22T21:11:17.572Z,97091.19
2022-10-22T21:13:44.291Z,97101.00
2022-10-22T21:16:12.656Z,97108.69
2022-10-22T21:18:39.528Z,97113.03
2022-10-22T21:21:07.828Z,97114.06
2022-10-22T21:23:35.755Z,97108.69
2022-10-22T21:26:02.987Z,97106.28
2022-10-22T21:30:57.234Z,97113.25
2022-10-22T21:33:23.622Z,97109.03
2022-10-22T21:35:55.007Z,97112.00
2022-10-22T21:38:23.206Z,97085.16
2022-10-22T21:40:50.487Z,97105.22
2022-10-22T21:43:17.678Z,97107.63
2022-10-22T21:45:44.681Z,97084.34
2022-10-22T21:48:15.874Z,97103.38
2022-10-22T21:50:43.931Z,97099.97
2022-10-22T21:53:12.048Z,97107.38
2022-10-22T21:55:41.511Z,97094.03
2022-10-22T21:58:08.706Z,97111.06
2022-10-22T22:17:21.380Z,97099.81
2022-10-22T22:19:47.947Z,97116.72
2022-10-22T22:22:14.411Z,97109.88
2022-10-22T22:24:40.967Z,97125.75
2022-10-22T22:27:07.471Z,97118.69
2022-10-22T22:29:34.744Z,97123.72
2022-10-22T22:32:01.387Z,97120.66
2022-10-22T22:34:27.812Z,97106.63
2022-10-22T22:36:54.453Z,97104.75
2022-10-22T22:39:23.705Z,97098.25
2022-10-22T22:41:50.879Z,97080.66
2022-10-22T22:44:17.534Z,97093.94
2022-10-22T22:46:44.073Z,97100.56
2022-10-22T22:49:10.557Z,97093.94
2022-10-22T22:51:37.076Z,97092.44
2022-10-22T22:54:03.535Z,97095.06
2022-10-22T22:56:32.705Z,97091.06
2022-10-22T22:58:59.407Z,97088.69
2022-10-22T23:01:37.786Z,97086.38
2022-10-22T23:04:13.640Z,97075.09
2022-10-22T23:06:40.327Z,97067.44
2022-10-22T23:09:09.504Z,97073.50
2022-10-22T23:11:36.446Z,97069.16
2022-10-22T23:14:05.320Z,97071.22
2022-10-22T23:16:34.364Z,97043.47
2022-10-22T23:19:01.524Z,97063.09
2022-10-22T23:21:30.940Z,97044.94
2022-10-22T23:24:00.980Z,97065.16
2022-10-22T23:26:32.340Z,97057.28
2022-10-22T23:29:04.261Z,97051.13
2022-10-22T23:31:31.170Z,97057.84
2022-10-22T23:33:58.538Z,97043.22
2022-10-22T23:36:25.793Z,97054.41
2022-10-22T23:38:52.528Z,97054.78
2022-10-22T23:41:19.028Z,97048.47
2022-10-22T23:43:45.617Z,97035.22
2022-10-22T23:46:13.001Z,97045.97
2022-10-22T23:48:40.236Z,97043.34
2022-10-22T23:51:11.810Z,97037.75
2022-10-22T23:53:38.567Z,97014.34
2022-10-22T23:56:10.710Z,97032.25
2022-10-22T23:58:39.211Z,97019.94
